Time;durP1;ratioP1;P1;durP2;ratioP2;P2;SDS_P1;SDS_P2;PMS_P1;PMS_P2;Temp;Humidity;BMP_temperature;BMP_pressure;BME280_temperature;BME280_humidity;BME280_pressure;Samples;Min_cycle;Max_cycle;Signal;HPM_P1;HPM_P2
2022/03/13 00:02:26;;;;;;;3.13;2.55;;;18.20;41.90;;;;;;4846812;29;20196;-86
2022/03/13 00:04:56;;;;;;;3.83;2.60;;;18.20;41.80;;;;;;4831591;29;20219;-86
2022/03/13 00:07:27;;;;;;;3.85;2.50;;;18.20;41.90;;;;;;4831268;29;20644;-86
2022/03/13 00:09:54;;;;;;;2.75;2.33;;;18.20;41.80;;;;;;4847538;29;20178;-85
2022/03/13 00:12:25;;;;;;;4.07;2.50;;;18.20;41.90;;;;;;4846988;29;20177;-85
2022/03/13 00:14:56;;;;;;;3.65;2.63;;;18.10;41.80;;;;;;4846191;29;20211;-86
2022/03/13 00:17:27;;;;;;;3.33;2.53;;;18.20;41.80;;;;;;4818618;29;20267;-87
2022/03/13 00:19:59;;;;;;;3.45;2.40;;;18.20;42.60;;;;;;4830964;29;20548;-85
2022/03/13 00:22:31;;;;;;;4.28;2.65;;;18.20;41.90;;;;;;4845362;29;20162;-85
2022/03/13 00:24:58;;;;;;;2.58;2.20;;;18.20;42.10;;;;;;4844795;29;20198;-84
2022/03/13 00:27:31;;;;;;;2.90;2.60;;;18.10;41.80;;;;;;4845958;29;20177;-86
2022/03/13 00:29:58;;;;;;;4.55;2.50;;;18.10;41.90;;;;;;4845191;29;20193;-85
2022/03/13 00:32:23;;;;;;;4.97;2.70;;;18.20;41.80;;;;;;4844967;29;20193;-86
2022/03/13 00:34:50;;;;;;;5.03;2.38;;;18.10;41.70;;;;;;4830948;29;20181;-86
2022/03/13 00:37:17;;;;;;;3.40;2.28;;;18.10;41.90;;;;;;4844817;29;20186;-85
2022/03/13 00:39:49;;;;;;;2.92;2.40;;;18.10;41.90;;;;;;4844358;29;20219;-85
2022/03/13 00:42:20;;;;;;;3.47;2.60;;;18.10;41.80;;;;;;4830946;29;20182;-85
2022/03/13 00:44:47;;;;;;;3.47;2.55;;;18.10;41.90;;;;;;4845201;29;20185;-86
2022/03/13 00:47:13;;;;;;;3.10;2.33;;;18.20;42.10;;;;;;4844604;29;20250;-86
2022/03/13 00:49:45;;;;;;;3.65;2.22;;;18.10;42.10;;;;;;4845388;29;20194;-85
2022/03/13 00:52:17;;;;;;;2.60;2.38;;;18.10;42.10;;;;;;4844511;29;20200;-86
2022/03/13 00:54:48;;;;;;;3.65;2.63;;;18.10;42.10;;;;;;4859504;29;20319;-86
2022/03/13 00:57:17;;;;;;;3.65;2.72;;;18.10;42.20;;;;;;4829046;29;20314;-86
2022/03/13 00:59:43;;;;;;;3.88;2.65;;;18.10;42.10;;;;;;4845728;29;20188;-85
2022/03/13 01:02:14;;;;;;;3.25;2.55;;;18.10;42.00;;;;;;4830557;29;20173;-85
2022/03/13 01:04:39;;;;;;;3.05;2.50;;;18.10;42.10;;;;;;4829399;29;20486;-85
2022/03/13 01:07:09;;;;;;;3.90;2.60;;;18.10;42.20;;;;;;4829790;29;20234;-86
2022/03/13 01:09:36;;;;;;;3.38;2.42;;;18.10;42.20;;;;;;4844156;29;20193;-86
2022/03/13 01:12:03;;;;;;;3.67;2.40;;;18.10;42.20;;;;;;4844805;29;20203;-85
2022/03/13 01:14:32;;;;;;;2.83;2.15;;;18.00;42.20;;;;;;4844330;29;20196;-85
2022/03/13 01:17:03;;;;;;;3.13;2.45;;;18.00;42.10;;;;;;4850966;29;20719;-86
2022/03/13 01:19:32;;;;;;;3.45;2.38;;;18.00;42.30;;;;;;4866229;29;20152;-87
2022/03/13 01:22:01;;;;;;;4.65;2.42;;;18.00;42.20;;;;;;4851572;29;20172;-85
2022/03/13 01:24:43;;;;;;;3.10;2.30;;;18.00;42.30;;;;;;4865774;29;20188;-86
2022/03/13 01:27:13;;;;;;;3.33;2.40;;;18.00;42.20;;;;;;4850998;29;20184;-86
2022/03/13 01:29:43;;;;;;;3.80;2.58;;;18.00;42.30;;;;;;4865265;29;20184;-87
2022/03/13 01:32:09;;;;;;;4.05;2.60;;;17.90;42.30;;;;;;4849359;29;20195;-85
2022/03/13 01:34:43;;;;;;;3.42;2.70;;;18.00;42.10;;;;;;4851231;29;20207;-85
2022/03/13 01:37:25;;;;;;;3.38;2.55;;;18.00;42.30;;;;;;4852943;29;20250;-86
2022/03/13 01:40:00;;;;;;;4.13;2.60;;;18.00;42.40;;;;;;4824296;29;20513;-86
2022/03/13 01:42:30;;;;;;;2.72;2.20;;;18.00;42.40;;;;;;4837034;29;20223;-85
2022/03/13 01:44:59;;;;;;;4.18;2.70;;;17.90;42.30;;;;;;4837967;29;20195;-86
2022/03/13 01:47:27;;;;;;;2.80;2.50;;;18.10;42.30;;;;;;4853348;29;20199;-85
2022/03/13 01:49:54;;;;;;;4.50;2.28;;;18.00;42.50;;;;;;4852541;29;20225;-85
2022/03/13 01:52:26;;;;;;;3.17;2.47;;;18.00;42.40;;;;;;4836806;29;20183;-86
2022/03/13 01:54:58;;;;;;;4.35;2.45;;;18.00;42.20;;;;;;4867519;29;20196;-85
2022/03/13 01:57:31;;;;;;;3.20;2.60;;;18.00;42.30;;;;;;4851882;29;20180;-85
2022/03/13 02:00:01;;;;;;;3.90;2.35;;;18.00;42.30;;;;;;4852947;29;20184;-86
2022/03/13 02:02:34;;;;;;;2.90;2.35;;;18.00;42.40;;;;;;4861712;29;20215;-85
2022/03/13 02:05:02;;;;;;;3.83;2.50;;;18.00;42.50;;;;;;4845876;29;20224;-85
2022/03/13 02:07:29;;;;;;;4.13;2.78;;;18.00;42.40;;;;;;4830802;29;20681;-84
2022/03/13 02:09:59;;;;;;;4.20;2.50;;;18.00;42.40;;;;;;4861003;29;20193;-86
2022/03/13 02:12:29;;;;;;;3.40;2.50;;;18.00;42.40;;;;;;4845303;29;20196;-84
2022/03/13 02:14:56;;;;;;;3.50;2.53;;;18.00;42.40;;;;;;4860745;29;20193;-86
2022/03/13 02:17:25;;;;;;;3.42;2.40;;;17.90;42.40;;;;;;4844989;29;20325;-84
2022/03/13 02:19:52;;;;;;;5.75;2.50;;;18.00;42.50;;;;;;4845171;29;20225;-85
2022/03/13 02:22:22;;;;;;;3.40;2.30;;;18.00;42.50;;;;;;4799879;29;20657;-84
2022/03/13 02:24:54;;;;;;;3.00;2.40;;;18.00;42.40;;;;;;4800019;29;20185;-86
2022/03/13 02:27:22;;;;;;;4.78;2.80;;;18.00;42.50;;;;;;4845785;29;20190;-85
2022/03/13 02:29:48;;;;;;;3.67;2.42;;;18.00;42.40;;;;;;4845564;29;20189;-86
2022/03/13 02:32:14;;;;;;;4.55;2.40;;;17.90;42.30;;;;;;4845412;29;20183;-86
2022/03/13 02:34:42;;;;;;;3.90;2.35;;;18.00;42.30;;;;;;4864486;29;20205;-84
2022/03/13 02:37:26;;;;;;;3.03;2.60;;;17.90;42.40;;;;;;4864894;29;20165;-86
2022/03/13 02:39:55;;;;;;;3.95;2.53;;;17.90;42.40;;;;;;4866395;29;20172;-85
2022/03/13 02:42:23;;;;;;;4.55;2.40;;;17.90;42.50;;;;;;4863635;29;20575;-84
2022/03/13 02:44:51;;;;;;;4.40;2.70;;;17.90;42.60;;;;;;4848864;29;20181;-84
2022/03/13 02:47:18;;;;;;;3.17;2.40;;;18.00;42.60;;;;;;4863179;29;20189;-84
2022/03/13 02:49:49;;;;;;;3.97;3.03;;;17.90;42.50;;;;;;4848857;29;20267;-84
2022/03/13 02:52:16;;;;;;;3.88;2.92;;;17.90;42.40;;;;;;4864335;29;20196;-84
2022/03/13 02:54:43;;;;;;;3.28;2.35;;;17.80;42.60;;;;;;4833085;29;20220;-84
2022/03/13 02:57:11;;;;;;;3.15;2.22;;;17.90;42.60;;;;;;4848230;29;20180;-85
2022/03/13 02:59:38;;;;;;;2.95;2.50;;;17.80;42.50;;;;;;4849111;29;20225;-84
2022/03/13 03:02:05;;;;;;;3.38;2.40;;;17.90;42.50;;;;;;4864176;29;20271;-83
2022/03/13 03:04:32;;;;;;;3.55;2.72;;;17.90;42.50;;;;;;4848110;29;20189;-85
2022/03/13 03:07:01;;;;;;;4.03;2.63;;;17.90;42.30;;;;;;4848093;29;20279;-86
2022/03/13 03:09:29;;;;;;;3.67;2.40;;;17.90;42.50;;;;;;4848654;29;20207;-85
2022/03/13 03:12:01;;;;;;;3.78;2.42;;;17.90;42.50;;;;;;4863701;29;20185;-85
2022/03/13 03:14:36;;;;;;;3.88;2.42;;;17.90;42.40;;;;;;4832951;29;20231;-83
2022/03/13 03:17:02;;;;;;;3.97;2.40;;;17.90;42.40;;;;;;4829022;29;20630;-86
2022/03/13 03:19:33;;;;;;;3.85;2.55;;;17.90;42.60;;;;;;4845918;29;20174;-85
2022/03/13 03:22:02;;;;;;;4.05;2.40;;;17.90;42.60;;;;;;4845201;29;20306;-84
2022/03/13 03:24:34;;;;;;;3.78;2.60;;;17.80;42.40;;;;;;4830499;29;20196;-84
2022/03/13 03:27:01;;;;;;;4.97;2.70;;;17.90;42.60;;;;;;4845365;29;20273;-85
2022/03/13 03:29:28;;;;;;;3.58;2.60;;;17.90;42.70;;;;;;4850049;29;20161;-85
2022/03/13 03:31:58;;;;;;;3.25;2.50;;;17.80;42.70;;;;;;4849195;29;20165;-85
2022/03/13 03:34:28;;;;;;;2.75;2.30;;;17.90;42.60;;;;;;4849014;29;20225;-85
2022/03/13 03:37:00;;;;;;;3.35;2.47;;;17.90;42.60;;;;;;4849851;29;20185;-84
2022/03/13 03:39:31;;;;;;;3.05;2.40;;;17.90;42.70;;;;;;4834466;29;20249;-85
2022/03/13 03:42:05;;;;;;;3.00;2.40;;;17.90;42.60;;;;;;4835792;29;20189;-85
2022/03/13 03:44:31;;;;;;;4.57;2.70;;;17.80;42.70;;;;;;4852125;29;20188;-85
2022/03/13 03:46:57;;;;;;;3.13;2.42;;;17.90;42.70;;;;;;4855429;29;20592;-84
2022/03/13 03:49:27;;;;;;;4.22;2.58;;;17.90;42.70;;;;;;4857356;29;20204;-85
2022/03/13 03:51:53;;;;;;;4.00;2.30;;;17.80;42.70;;;;;;4857054;29;20637;-84
2022/03/13 03:54:24;;;;;;;3.97;2.55;;;17.80;42.60;;;;;;4856261;29;20204;-84
2022/03/13 03:56:56;;;;;;;3.13;2.33;;;17.90;42.70;;;;;;4831662;29;20217;-84
2022/03/13 03:59:26;;;;;;;2.97;2.30;;;17.90;42.70;;;;;;4845326;29;20313;-85
2022/03/13 04:01:53;;;;;;;3.03;2.50;;;17.90;42.80;;;;;;4830173;29;20181;-85
2022/03/13 04:04:25;;;;;;;3.90;2.60;;;17.80;42.70;;;;;;4845674;29;20633;-84
2022/03/13 04:06:51;;;;;;;4.05;2.72;;;17.80;42.80;;;;;;4829214;29;20189;-84
2022/03/13 04:09:16;;;;;;;3.38;2.50;;;17.80;42.70;;;;;;4830543;29;20671;-84
2022/03/13 04:11:44;;;;;;;3.30;2.67;;;17.80;42.90;;;;;;4845582;29;20193;-86
2022/03/13 04:14:10;;;;;;;3.20;2.50;;;17.80;42.80;;;;;;4830301;29;20269;-86
2022/03/13 04:16:35;;;;;;;4.32;2.75;;;17.80;42.90;;;;;;4830605;29;20169;-84
2022/03/13 04:19:01;;;;;;;4.30;2.70;;;17.80;42.80;;;;;;4866527;29;20185;-86
2022/03/13 04:21:30;;;;;;;3.63;2.85;;;17.80;42.90;;;;;;4850961;29;20164;-86
2022/03/13 04:23:55;;;;;;;3.20;2.58;;;17.80;42.90;;;;;;4867013;29;20173;-86
2022/03/13 04:26:22;;;;;;;4.65;2.83;;;17.80;42.80;;;;;;4866717;29;20167;-85
2022/03/13 04:28:49;;;;;;;3.63;2.30;;;17.80;42.70;;;;;;4852024;29;20207;-86
2022/03/13 04:31:18;;;;;;;3.97;2.67;;;17.80;42.90;;;;;;4866952;29;20168;-86
2022/03/13 04:33:44;;;;;;;3.22;2.50;;;17.80;42.80;;;;;;4866313;29;20188;-85
2022/03/13 04:36:14;;;;;;;3.75;2.45;;;17.80;42.80;;;;;;4866182;29;20653;-85
2022/03/13 04:38:42;;;;;;;3.08;2.38;;;17.80;42.80;;;;;;4851741;29;20589;-84
2022/03/13 04:41:08;;;;;;;3.33;2.50;;;17.80;42.80;;;;;;4850434;29;20647;-85
2022/03/13 04:43:39;;;;;;;3.22;2.65;;;17.80;42.90;;;;;;4865960;29;20160;-84
2022/03/13 04:46:05;;;;;;;4.90;2.90;;;17.80;42.80;;;;;;4850366;29;20188;-84
2022/03/13 04:48:32;;;;;;;3.00;2.55;;;17.80;43.60;;;;;;4866231;29;20164;-85
2022/03/13 04:50:59;;;;;;;3.60;2.63;;;17.80;42.90;;;;;;4850915;29;20164;-84
2022/03/13 04:53:25;;;;;;;3.40;2.33;;;17.80;42.90;;;;;;4866151;29;20255;-86
2022/03/13 04:55:50;;;;;;;3.20;2.60;;;17.80;42.90;;;;;;4850648;29;20180;-85
2022/03/13 04:58:18;;;;;;;3.92;2.58;;;17.80;43.00;;;;;;4866039;29;20624;-85
2022/03/13 05:00:46;;;;;;;3.50;2.75;;;17.80;43.50;;;;;;4850871;29;20168;-85
2022/03/13 05:03:12;;;;;;;4.38;2.83;;;17.80;43.00;;;;;;4851034;29;20183;-85
2022/03/13 05:05:39;;;;;;;4.43;2.70;;;17.80;43.00;;;;;;4866183;29;20241;-84
2022/03/13 05:08:05;;;;;;;5.15;3.03;;;17.80;43.00;;;;;;4865846;29;20518;-86
2022/03/13 05:10:40;;;;;;;4.15;2.35;;;17.80;42.90;;;;;;4852806;29;20180;-85
2022/03/13 05:13:12;;;;;;;4.05;2.42;;;17.70;42.90;;;;;;4853117;29;20223;-84
2022/03/13 05:15:39;;;;;;;3.90;2.40;;;17.70;43.00;;;;;;4853399;29;20195;-85
2022/03/13 05:18:05;;;;;;;4.47;2.65;;;17.70;42.80;;;;;;4854006;29;20231;-85
2022/03/13 05:20:35;;;;;;;3.00;2.40;;;17.70;42.90;;;;;;4854298;29;20179;-86
2022/03/13 05:23:07;;;;;;;3.53;2.65;;;17.80;43.00;;;;;;4869919;29;20172;-85
2022/03/13 05:25:35;;;;;;;2.70;2.35;;;17.70;43.00;;;;;;4884705;29;20696;-86
2022/03/13 05:28:01;;;;;;;4.10;2.53;;;17.70;43.00;;;;;;4853860;29;20624;-86
2022/03/13 05:30:27;;;;;;;4.68;3.20;;;17.70;43.00;;;;;;4853644;29;20164;-85
2022/03/13 05:32:52;;;;;;;4.72;2.97;;;17.80;43.00;;;;;;4869016;29;20287;-84
2022/03/13 05:35:19;;;;;;;3.90;2.50;;;17.70;43.00;;;;;;4853991;29;20616;-86
2022/03/13 05:37:45;;;;;;;3.10;2.58;;;17.70;43.00;;;;;;4853829;29;20169;-85
2022/03/13 05:40:14;;;;;;;3.50;2.58;;;17.70;42.90;;;;;;4853206;29;20183;-85
2022/03/13 05:42:46;;;;;;;3.42;2.53;;;17.70;42.90;;;;;;4853554;29;20588;-85
2022/03/13 05:45:19;;;;;;;3.78;2.80;;;17.80;43.00;;;;;;4837948;29;20613;-84
2022/03/13 05:47:50;;;;;;;3.60;2.78;;;17.80;42.90;;;;;;4852878;29;20279;-84
2022/03/13 05:50:20;;;;;;;4.25;2.63;;;17.80;43.00;;;;;;4867436;29;20232;-86
2022/03/13 05:52:50;;;;;;;3.85;2.83;;;17.80;42.90;;;;;;4836717;29;20764;-85
2022/03/13 05:55:20;;;;;;;3.53;2.85;;;17.80;43.00;;;;;;4851906;29;20283;-86
2022/03/13 05:57:49;;;;;;;4.55;2.90;;;17.70;42.90;;;;;;4835413;29;20282;-85
2022/03/13 06:00:19;;;;;;;2.95;2.45;;;17.80;42.70;;;;;;4849325;29;20216;-85
2022/03/13 06:02:48;;;;;;;3.38;2.40;;;17.80;42.70;;;;;;4834341;29;20188;-84
2022/03/13 06:05:17;;;;;;;3.13;2.40;;;17.80;42.80;;;;;;4833693;29;20213;-85
2022/03/13 06:07:48;;;;;;;3.05;2.67;;;17.80;42.80;;;;;;4849765;29;20207;-83
2022/03/13 06:10:14;;;;;;;4.03;2.53;;;17.70;42.80;;;;;;4864272;29;20187;-84
2022/03/13 06:12:40;;;;;;;3.38;2.75;;;17.80;42.70;;;;;;4865048;29;20156;-85
2022/03/13 06:15:10;;;;;;;3.55;2.53;;;17.80;42.80;;;;;;4849581;29;20169;-85
2022/03/13 06:17:39;;;;;;;3.60;2.50;;;17.80;42.80;;;;;;4838822;29;20233;-84
2022/03/13 06:20:07;;;;;;;3.63;2.85;;;17.80;43.30;;;;;;4843135;29;20181;-83
2022/03/13 06:22:34;;;;;;;4.32;2.85;;;17.80;42.90;;;;;;4828287;29;20326;-85
2022/03/13 06:25:00;;;;;;;7.03;2.70;;;17.80;42.90;;;;;;4844059;29;20173;-85
2022/03/13 06:27:30;;;;;;;3.92;2.58;;;17.80;42.90;;;;;;4845496;29;20166;-87
2022/03/13 06:30:10;;;;;;;6.15;2.60;;;17.80;42.80;;;;;;4813990;29;20276;-85
2022/03/13 06:32:41;;;;;;;4.43;2.60;;;17.80;42.90;;;;;;4816366;29;20669;-85
2022/03/13 06:35:15;;;;;;;4.57;2.75;;;17.90;42.80;;;;;;4813943;29;20280;-85
2022/03/13 06:37:45;;;;;;;5.88;2.75;;;17.80;42.80;;;;;;4829229;29;20216;-84
2022/03/13 06:40:11;;;;;;;4.75;2.63;;;17.90;42.50;;;;;;4815309;29;20211;-85
2022/03/13 06:42:40;;;;;;;4.85;2.63;;;17.80;42.60;;;;;;4842987;29;20683;-86
2022/03/13 06:45:06;;;;;;;3.45;2.67;;;18.00;42.50;;;;;;4812083;29;20251;-86
2022/03/13 06:47:32;;;;;;;4.00;2.88;;;17.90;42.50;;;;;;4827979;29;20173;-84
2022/03/13 06:49:58;;;;;;;4.65;2.97;;;17.90;42.50;;;;;;4827654;29;20591;-87
2022/03/13 06:52:26;;;;;;;4.57;3.08;;;17.90;42.50;;;;;;4827500;29;20173;-84
2022/03/13 06:54:53;;;;;;;4.72;3.10;;;18.00;42.40;;;;;;4827223;29;20349;-85
2022/03/13 06:57:21;;;;;;;7.18;3.08;;;17.90;42.30;;;;;;4811720;29;20212;-85
2022/03/13 06:59:49;;;;;;;3.58;3.00;;;18.00;42.30;;;;;;4826934;29;20200;-84
2022/03/13 07:02:19;;;;;;;6.50;2.80;;;18.00;42.30;;;;;;4826769;29;20626;-85
2022/03/13 07:04:46;;;;;;;3.85;2.33;;;18.00;42.40;;;;;;4826860;29;20190;-85
2022/03/13 07:07:12;;;;;;;4.32;2.95;;;17.90;42.30;;;;;;4826800;29;20272;-84
2022/03/13 07:09:39;;;;;;;4.68;2.75;;;17.90;42.30;;;;;;4842546;29;20273;-84
2022/03/13 07:12:11;;;;;;;4.95;2.67;;;18.00;42.30;;;;;;4826557;29;20213;-85
2022/03/13 07:14:45;;;;;;;7.38;3.03;;;18.00;42.20;;;;;;4827099;29;20681;-84
2022/03/13 07:17:11;;;;;;;2.85;2.50;;;18.10;41.90;;;;;;4813569;29;20286;-85
2022/03/13 07:19:39;;;;;;;3.17;2.72;;;18.10;42.00;;;;;;4827029;29;20177;-85
2022/03/13 07:22:07;;;;;;;3.97;2.70;;;18.10;42.10;;;;;;4826701;29;20189;-85
2022/03/13 07:24:34;;;;;;;6.80;3.00;;;18.10;42.10;;;;;;4840969;29;20192;-85
2022/03/13 07:27:01;;;;;;;4.60;2.90;;;18.10;42.20;;;;;;4825771;29;20194;-85
2022/03/13 07:29:27;;;;;;;3.72;2.75;;;18.10;42.10;;;;;;4841446;29;20268;-85
2022/03/13 07:31:56;;;;;;;4.28;2.70;;;18.10;42.10;;;;;;4841922;29;20292;-84
2022/03/13 07:34:24;;;;;;;4.55;2.67;;;18.10;42.00;;;;;;4840649;29;20258;-85
2022/03/13 07:36:51;;;;;;;3.95;2.75;;;18.10;42.00;;;;;;4841631;29;20276;-85
2022/03/13 07:39:19;;;;;;;3.85;2.83;;;18.10;42.10;;;;;;4841100;29;20230;-84
2022/03/13 07:41:46;;;;;;;3.95;2.90;;;18.10;42.10;;;;;;4826293;29;20537;-84
2022/03/13 07:44:13;;;;;;;4.93;2.78;;;18.10;42.00;;;;;;4841347;29;20766;-84
2022/03/13 07:46:39;;;;;;;3.60;2.85;;;18.20;41.90;;;;;;4841517;29;20185;-84
2022/03/13 07:49:06;;;;;;;5.82;3.00;;;18.20;41.90;;;;;;4827728;29;20180;-85
2022/03/13 07:51:34;;;;;;;4.18;3.00;;;18.20;41.80;;;;;;4827480;29;20173;-85
2022/03/13 07:54:04;;;;;;;5.00;2.95;;;18.10;41.80;;;;;;4827907;29;20353;-86
2022/03/13 07:56:30;;;;;;;5.50;3.55;;;18.20;41.70;;;;;;4841747;29;20189;-87
2022/03/13 07:58:56;;;;;;;4.80;3.17;;;18.30;41.80;;;;;;4842726;29;20169;-87
2022/03/13 08:01:22;;;;;;;9.02;3.55;;;18.30;41.60;;;;;;4829252;29;20170;-86
2022/03/13 08:03:48;;;;;;;5.15;3.40;;;18.40;41.70;;;;;;4849312;29;20178;-84
2022/03/13 08:06:14;;;;;;;7.63;3.10;;;18.40;41.60;;;;;;4835181;29;20177;-84
2022/03/13 08:08:48;;;;;;;4.97;3.40;;;18.40;41.60;;;;;;4839302;29;20173;-84
2022/03/13 08:11:15;;;;;;;5.85;3.45;;;18.60;41.20;;;;;;4837546;29;20181;-85
2022/03/13 08:13:49;;;;;;;5.97;3.13;;;18.70;41.10;;;;;;4838467;29;20208;-84
2022/03/13 08:16:18;;;;;;;6.47;3.00;;;18.60;41.20;;;;;;4868030;29;20275;-85
2022/03/13 08:18:44;;;;;;;4.82;3.30;;;18.60;41.20;;;;;;4839646;29;20233;-86
2022/03/13 08:21:16;;;;;;;5.63;2.90;;;18.70;41.10;;;;;;4839748;29;20196;-87
2022/03/13 08:23:42;;;;;;;3.67;2.53;;;18.60;41.20;;;;;;4851337;29;20192;-87
2022/03/13 08:26:08;;;;;;;4.10;2.92;;;18.60;41.10;;;;;;4837881;29;20245;-84
2022/03/13 08:28:35;;;;;;;4.07;3.00;;;18.80;41.00;;;;;;4854011;29;20222;-85
2022/03/13 08:31:04;;;;;;;5.30;3.35;;;18.80;40.80;;;;;;4854050;29;20240;-85
2022/03/13 08:33:30;;;;;;;7.30;3.03;;;18.80;40.90;;;;;;4839102;29;20292;-85
2022/03/13 08:35:58;;;;;;;5.85;3.10;;;18.90;41.20;;;;;;4853859;29;20162;-86
2022/03/13 08:38:28;;;;;;;5.22;3.10;;;18.80;40.80;;;;;;4820157;29;20185;-84
2022/03/13 08:40:58;;;;;;;6.57;3.00;;;18.80;40.80;;;;;;4835249;29;20200;-84
2022/03/13 08:43:24;;;;;;;3.22;2.83;;;19.00;40.80;;;;;;4815481;29;20789;-85
2022/03/13 08:45:52;;;;;;;5.10;3.30;;;18.90;41.20;;;;;;4834777;29;20256;-84
2022/03/13 08:48:20;;;;;;;4.90;3.40;;;18.90;41.00;;;;;;4836089;29;20201;-86
2022/03/13 08:50:50;;;;;;;7.93;3.40;;;18.90;41.00;;;;;;4838307;29;20248;-86
2022/03/13 08:53:30;;;;;;;7.38;3.00;;;18.90;41.20;;;;;;4838598;29;20316;-87
2022/03/13 08:56:00;;;;;;;6.63;3.20;;;19.00;41.30;;;;;;4839321;29;20181;-84
2022/03/13 08:58:27;;;;;;;4.55;3.05;;;18.90;41.20;;;;;;4836316;29;20186;-84
2022/03/13 09:00:54;;;;;;;6.20;3.45;;;18.90;41.30;;;;;;4835157;29;20173;-87
2022/03/13 09:03:22;;;;;;;8.15;3.70;;;19.00;41.20;;;;;;4851904;29;20205;-83
2022/03/13 09:05:48;;;;;;;15.18;3.67;;;19.00;41.20;;;;;;4851578;29;20237;-85
2022/03/13 09:08:16;;;;;;;7.35;2.85;;;19.00;41.50;;;;;;4838388;29;20214;-86
2022/03/13 09:10:46;;;;;;;9.10;3.33;;;19.10;41.70;;;;;;4835812;29;20173;-88
2022/03/13 09:13:20;;;;;;;8.45;3.45;;;19.10;41.60;;;;;;4849560;29;20217;-88
2022/03/13 09:15:51;;;;;;;8.30;3.50;;;19.10;41.20;;;;;;4841078;29;20181;-85
2022/03/13 09:18:24;;;;;;;9.77;3.15;;;19.20;41.00;;;;;;4822160;29;20300;-87
2022/03/13 09:20:54;;;;;;;7.00;3.60;;;19.20;41.10;;;;;;4842675;29;20195;-86
2022/03/13 09:23:24;;;;;;;8.43;3.53;;;19.20;41.00;;;;;;4842922;29;20215;-86
2022/03/13 09:25:52;;;;;;;9.20;3.55;;;19.10;41.00;;;;;;4837114;29;20233;-87
2022/03/13 09:28:29;;;;;;;9.45;3.40;;;19.20;41.00;;;;;;4820353;29;20285;-87
2022/03/13 09:30:59;;;;;;;8.55;3.80;;;19.20;41.30;;;;;;4818264;29;20202;-88
2022/03/13 09:33:31;;;;;;;9.25;3.30;;;19.20;41.00;;;;;;4821661;29;20314;-85
2022/03/13 09:35:59;;;;;;;14.73;3.70;;;19.20;40.90;;;;;;4820394;29;20190;-86
2022/03/13 09:38:25;;;;;;;10.30;3.25;;;19.10;41.10;;;;;;4835525;29;20166;-86
2022/03/13 09:41:06;;;;;;;6.72;3.10;;;19.20;41.30;;;;;;4834670;29;20201;-87
2022/03/13 09:43:36;;;;;;;8.43;3.20;;;19.10;41.40;;;;;;4801291;29;20241;-87
2022/03/13 09:46:05;;;;;;;6.57;3.58;;;19.20;41.20;;;;;;4818718;29;20201;-87
2022/03/13 09:48:37;;;;;;;9.07;3.17;;;19.10;41.70;;;;;;4805065;29;20194;-88
2022/03/13 09:51:13;;;;;;;6.25;3.05;;;19.10;40.90;;;;;;4817347;29;20210;-89
2022/03/13 09:53:42;;;;;;;9.25;3.30;;;19.20;41.30;;;;;;4805479;29;20669;-86
2022/03/13 09:56:12;;;;;;;11.80;3.15;;;19.20;41.10;;;;;;4815057;29;20264;-87
2022/03/13 09:58:45;;;;;;;5.22;3.40;;;19.20;41.40;;;;;;4840372;29;20717;-84
2022/03/13 10:01:16;;;;;;;5.72;3.40;;;19.10;41.40;;;;;;4855970;29;20189;-88
2022/03/13 10:03:44;;;;;;;4.70;3.00;;;19.20;41.50;;;;;;4850827;29;20236;-85
2022/03/13 10:06:18;;;;;;;6.20;2.88;;;19.20;41.00;;;;;;4868975;29;20192;-89
2022/03/13 10:08:48;;;;;;;8.20;3.17;;;19.30;41.20;;;;;;4839732;29;20193;-87
2022/03/13 10:11:33;;;;;;;9.95;3.42;;;19.30;40.90;;;;;;4854011;29;20188;-87
2022/03/13 10:14:11;;;;;;;8.70;3.25;;;19.20;41.30;;;;;;4841463;29;20208;-86
2022/03/13 10:16:38;;;;;;;5.25;3.20;;;19.20;41.90;;;;;;4845300;29;20192;-86
2022/03/13 10:19:19;;;;;;;8.98;3.28;;;19.10;41.90;;;;;;4879702;29;20172;-87
2022/03/13 10:22:08;;;;;;;10.23;3.15;;;19.10;41.50;;;;;;4860727;29;20183;-84
2022/03/13 10:24:46;;;;;;;8.70;3.45;;;19.10;41.50;;;;;;4859505;29;20180;-88
2022/03/13 10:27:17;;;;;;;6.70;3.10;;;19.10;41.70;;;;;;4858625;29;20219;-86
2022/03/13 10:29:48;;;;;;;7.10;3.40;;;19.10;42.40;;;;;;4842796;29;20192;-86
2022/03/13 10:32:22;;;;;;;5.82;3.20;;;19.10;42.40;;;;;;4858390;29;20263;-87
2022/03/13 10:34:57;;;;;;;6.40;3.13;;;19.20;42.00;;;;;;4846464;29;20223;-84
2022/03/13 10:37:43;;;;;;;6.85;2.83;;;19.20;42.80;;;;;;4876252;29;20274;-84
2022/03/13 10:40:22;;;;;;;9.10;3.45;;;19.10;42.80;;;;;;4862375;29;20271;-85
2022/03/13 10:42:50;;;;;;;7.38;3.30;;;19.10;42.10;;;;;;4864215;29;20212;-86
2022/03/13 10:45:37;;;;;;;6.28;3.10;;;19.10;41.70;;;;;;4848232;29;20192;-86
2022/03/13 10:48:28;;;;;;;5.55;2.90;;;19.10;41.80;;;;;;4850070;29;20184;-85
2022/03/13 10:50:57;;;;;;;8.27;3.33;;;19.20;41.50;;;;;;4881749;29;20183;-85
2022/03/13 10:53:28;;;;;;;4.65;3.00;;;19.20;42.00;;;;;;4861077;29;20235;-86
2022/03/13 10:56:09;;;;;;;5.95;3.10;;;19.20;41.70;;;;;;4849452;29;20292;-86
2022/03/13 10:58:44;;;;;;;10.68;3.03;;;19.20;41.50;;;;;;4892884;29;20164;-86
2022/03/13 11:01:18;;;;;;;7.57;3.08;;;19.10;42.30;;;;;;4877245;29;20192;-86
2022/03/13 11:03:52;;;;;;;7.95;3.33;;;19.10;41.60;;;;;;4830079;29;20192;-85
2022/03/13 11:06:20;;;;;;;5.20;2.80;;;19.20;41.60;;;;;;4845136;29;20247;-86
2022/03/13 11:08:55;;;;;;;5.72;3.42;;;19.20;41.60;;;;;;4874146;29;20251;-85
2022/03/13 11:11:22;;;;;;;5.43;2.85;;;19.30;41.40;;;;;;4846148;29;20247;-85
2022/03/13 11:13:59;;;;;;;6.47;3.25;;;19.20;42.10;;;;;;4876444;29;20212;-85
2022/03/13 11:16:28;;;;;;;7.18;3.38;;;19.20;41.80;;;;;;4833042;29;20191;-85
2022/03/13 11:18:56;;;;;;;9.07;3.05;;;19.30;42.20;;;;;;4876731;29;20215;-85
2022/03/13 11:21:23;;;;;;;8.30;3.13;;;19.20;41.70;;;;;;4861319;29;20205;-85
2022/03/13 11:23:51;;;;;;;10.00;3.40;;;19.20;41.80;;;;;;4861639;29;20187;-85
2022/03/13 11:26:19;;;;;;;4.22;3.25;;;19.20;42.10;;;;;;4861478;29;20200;-85
2022/03/13 11:28:46;;;;;;;6.70;3.20;;;19.10;42.10;;;;;;4861947;29;20280;-84
2022/03/13 11:31:32;;;;;;;4.60;2.95;;;19.10;42.30;;;;;;4860946;29;20179;-85
2022/03/13 11:34:13;;;;;;;3.78;2.78;;;19.10;42.00;;;;;;4877195;29;20200;-85
2022/03/13 11:36:45;;;;;;;6.10;2.97;;;19.10;42.80;;;;;;4860463;29;20180;-86
2022/03/13 11:39:27;;;;;;;6.20;3.28;;;19.10;42.10;;;;;;4856151;29;20646;-87
2022/03/13 11:41:57;;;;;;;6.85;2.80;;;19.00;42.80;;;;;;4840662;29;20188;-88
2022/03/13 11:44:38;;;;;;;6.75;2.88;;;19.10;42.10;;;;;;4854652;29;20192;-88
2022/03/13 11:47:22;;;;;;;6.32;2.95;;;19.10;42.20;;;;;;4886591;29;20175;-87
2022/03/13 11:49:48;;;;;;;4.95;2.70;;;19.10;42.60;;;;;;4868209;29;20199;-88
2022/03/13 11:52:33;;;;;;;5.20;2.92;;;19.20;42.60;;;;;;4869073;29;20240;-86
2022/03/13 11:55:04;;;;;;;7.82;2.78;;;19.10;43.40;;;;;;4832942;29;20219;-87
2022/03/13 11:57:43;;;;;;;5.80;2.75;;;19.10;42.60;;;;;;4846436;29;20189;-86
2022/03/13 12:00:30;;;;;;;4.75;3.03;;;19.00;43.10;;;;;;4845677;29;20668;-87
2022/03/13 12:03:06;;;;;;;4.70;2.80;;;19.10;42.80;;;;;;4844626;29;20245;-86
2022/03/13 12:05:33;;;;;;;7.10;3.03;;;19.00;42.90;;;;;;4828919;29;20219;-87
2022/03/13 12:08:05;;;;;;;6.43;3.08;;;19.10;42.10;;;;;;4829873;29;20685;-86
2022/03/13 12:10:43;;;;;;;6.47;3.03;;;19.10;43.60;;;;;;4831842;29;20200;-86
2022/03/13 12:13:12;;;;;;;6.13;2.97;;;19.10;42.50;;;;;;4831401;29;20684;-87
2022/03/13 12:15:40;;;;;;;7.45;2.75;;;19.10;43.60;;;;;;4832813;29;20265;-88
2022/03/13 12:18:22;;;;;;;5.88;2.80;;;19.10;42.50;;;;;;4828574;29;20229;-88
2022/03/13 12:20:53;;;;;;;5.45;2.70;;;19.10;43.00;;;;;;4827585;29;20189;-86
2022/03/13 12:23:28;;;;;;;5.93;2.90;;;19.10;41.70;;;;;;4844186;29;20225;-87
2022/03/13 12:26:15;;;;;;;7.22;2.95;;;19.10;42.70;;;;;;4855584;29;20550;-84
2022/03/13 12:28:46;;;;;;;4.18;2.55;;;19.20;42.70;;;;;;4851575;29;20180;-85
2022/03/13 12:31:13;;;;;;;7.40;3.00;;;19.20;41.90;;;;;;4851005;29;20219;-85
2022/03/13 12:33:44;;;;;;;5.85;2.88;;;19.20;41.80;;;;;;4864542;29;20193;-85
2022/03/13 12:36:16;;;;;;;3.83;2.63;;;19.20;42.20;;;;;;4851686;29;20212;-85
2022/03/13 12:38:49;;;;;;;6.95;2.90;;;19.20;43.00;;;;;;4838789;29;20192;-86
2022/03/13 12:41:19;;;;;;;5.07;2.80;;;19.20;42.70;;;;;;4838186;29;20188;-85
2022/03/13 12:43:51;;;;;;;3.55;2.60;;;19.20;42.60;;;;;;4836643;29;20364;-88
2022/03/13 12:46:21;;;;;;;3.80;2.47;;;19.20;42.70;;;;;;4849797;29;20641;-86
2022/03/13 12:48:53;;;;;;;4.32;2.78;;;19.20;41.30;;;;;;4849182;29;20586;-85
2022/03/13 12:51:35;;;;;;;3.47;2.55;;;19.10;42.80;;;;;;4862133;29;20161;-84
2022/03/13 12:54:05;;;;;;;3.90;2.90;;;19.10;42.00;;;;;;4856056;29;20200;-86
2022/03/13 12:56:33;;;;;;;3.80;2.58;;;19.20;42.00;;;;;;4856926;29;20177;-86
2022/03/13 12:59:02;;;;;;;6.63;2.70;;;19.20;41.70;;;;;;4871761;29;20153;-86
2022/03/13 13:01:31;;;;;;;4.75;2.70;;;19.20;41.40;;;;;;4855338;29;20640;-87